< < Back
Terminal Aerodrome Forecast


Current Version              Previous Versions:   1  2  3  4  5  6  7  8  9  

Terminal Aerodrome Forecast

894
FTUS42 KMLB 231700
TAFMCO
TAF
KMCO 231740Z 2318/2418 17014G23KT P6SM SCT025 BKN035 BKN250
     FM232000 17014G22KT P6SM VCTS BKN035CB BKN250
     FM240200 18007KT P6SM FEW006 SCT025 BKN200
     FM240600 19006KT 5SM BR OVC004
      TEMPO 2413/2415 SCT004 BKN008
     FM241500 21010KT P6SM BKN015=

Latest METAR

712
SAUS70 KWBC 231900 RRA
MTRMCO
METAR KMCO 231853Z 19018G24KT 10SM SCT035 BKN250 29/22 A2990 RMK AO2
SLP122 T02940217 $


USA.gov is the U.S. government's official web portal to all federal, state and local government web resources and services.